Flight Track Log - Related Links

Times and Time Zones

All times are in EDT time to prevent confusion due to time zone crossing. See the ASQ4603 flight status page for this flight to view local times or setup timezone preferences in your user account.

Time Position Orientation Groundspeed Altitude Reporting Facility
EDT Latitude Longitude Course Direction KTS MPH feet Rate Location/Type
Wed 04:55:41 PM 39.7000 -86.3000 201° Southwest 145 167 1,500  Level Indianapolis TRACON
Wed 04:57:05 PM 39.6333 -86.3333 201° Southwest 223 257 5,200 2,292 Climbing Indianapolis TRACON
Wed 04:58:05 PM 39.6000 -86.2833 131° Southeast 271 312 7,000 2,158 Climbing Indianapolis TRACON
Wed 04:58:59 PM 39.6333 -86.2000 63° Northeast 296 341 9,300 1,759 Climbing Indianapolis TRACON
Wed 05:00:18 PM 39.6667 -86.0556 73° East 326 375 10,900 1,149 Climbing Indianapolis Center
Wed 05:01:20 PM 39.7022 -85.9275 70° East 375 432 12,000 1,220 Climbing Indianapolis Center
Wed 05:02:21 PM 39.7372 -85.7906 72° East 395 455 13,400 1,366 Climbing Indianapolis Center
Wed 05:03:23 PM 39.7703 -85.6481 73° East 408 470 14,800 1,258 Climbing Indianapolis Center
Wed 05:04:25 PM 39.8047 -85.5017 73° East 421 484 16,000 1,161 Climbing Indianapolis Center
Wed 05:05:27 PM 39.8378 -85.3519 74° East 430 495 17,200 1,210 Climbing Indianapolis Center
Wed 05:06:29 PM 39.8792 -85.1711 73° East 445 512 18,500 1,220 Climbing Indianapolis Center
Wed 05:07:30 PM 39.9164 -85.0108 73° East 456 525 19,700 1,171 Climbing Indianapolis Center
Wed 05:08:32 PM 39.9511 -84.8444 75° East 471 542 20,900 1,210 Climbing Indianapolis Center
Wed 05:09:34 PM 39.9867 -84.6708 75° East 485 558 22,200 1,024 Climbing Indianapolis Center
Wed 05:10:35 PM 40.0264 -84.4933 74° East 499 574 23,000 390 Climbing Indianapolis Center
Wed 05:11:37 PM 40.0667 -84.3064 74° East 528 608 23,000 -435 Level Indianapolis Center
Wed 05:12:39 PM 40.1056 -84.1122 75° East 546 628 22,100 -1,548 Descending Indianapolis Center
Wed 05:13:41 PM 40.1397 -83.9253 76° East 522 601 19,800 -1,561 Descending Indianapolis Center
Wed 05:14:42 PM 40.1714 -83.7419 77° East 510 587 18,900 -390 Descending Indianapolis Center
Wed 05:15:44 PM 40.2069 -83.5575 76° East 513 590 19,000 48 Climbing Indianapolis Center
Wed 05:16:46 PM 40.2631 -83.3814 67° East 519 597 19,000  Level Indianapolis Center
Wed 05:17:48 PM 40.3822 -83.2256 45° Northeast 513 590 19,000 -48 Level Indianapolis Center
Wed 05:18:50 PM 40.4850 -83.0956 44° Northeast 509 586 18,900 -146 Descending Indianapolis Center
Wed 05:19:51 PM 40.5736 -82.9778 45° Northeast 503 579 18,700 -625 Descending Indianapolis Center
Wed 05:20:26 PM 40.6356 -82.9033 42° Northeast 502 578 17,900 -1,642 Descending Cleveland Center
Wed 05:21:26 PM 40.7339 -82.7781 44° Northeast 475 547 16,100 -2,400 Descending Cleveland Center
Wed 05:22:26 PM 40.8192 -82.6767 42° Northeast 434 499 13,100 -2,969 Descending Cleveland Center
Wed 05:23:03 PM 40.8747 -82.6069 43° Northeast 425 489 11,300 -2,500 Descending Cleveland Center
Wed 05:23:26 PM 40.9047 -82.5611 49° Northeast 420 483 10,600 -1,164 Descending Cleveland Center
Wed 05:24:10 PM 40.9600 -82.4886 45° Northeast 406 467 10,000 -600 Descending Cleveland Center
Wed 05:24:26 PM 40.9794 -82.4533 54° Northeast 407 468 10,000  Level Cleveland Center
Wed 05:25:10 PM 41.0308 -82.3750 49° Northeast 404 465 10,000  Level Cleveland Center
Wed 05:25:26 PM 41.0542 -82.3425 46° Northeast 407 468 10,000  Level Cleveland Center
Wed 05:26:11 PM 41.1117 -82.2725 43° Northeast 409 471 10,000  Level Cleveland Center
Wed 05:26:26 PM 41.1264 -82.2481 51° Northeast 407 468 10,000  Level Cleveland Center
Wed 05:27:11 PM 41.1881 -82.1669 45° Northeast 385 443 10,000 -100 Level Cleveland Center
Wed 05:27:26 PM 41.2008 -82.1478 48° Northeast 394 453 9,900 -1,180 Descending Cleveland Center
Wed 05:28:12 PM 41.2539 -82.0800 44° Northeast 310 357 8,800 -1,346 Descending Cleveland Center
Wed 05:29:13 PM 41.3197 -81.9903 46° Northeast 317 365 7,500 -893 Descending Cleveland Center
Wed 05:30:13 PM 41.3869 -81.9419 28° Northeast 282 325 7,000 -271 Descending Cleveland Center
Wed 05:31:26 PM 41.4750 -81.9106 15° North 270 311 6,900 -148 Descending Cleveland Center
Wed 05:32:15 PM 41.5131 -81.8586 46° Northeast 223 257 6,700 -661 Descending Cleveland Center
Wed 05:33:15 PM 41.5533 -81.7956 50° Northeast 212 244 5,700 -942 Descending Cleveland Center
Wed 05:34:16 PM 41.5831 -81.7353 57° Northeast 207 238 4,800 -942 Descending Cleveland Center
Wed 05:35:16 PM 41.5419 -81.6900 140° Southeast 210 242 3,800 -893 Descending Cleveland Center
Wed 05:36:17 PM 41.4978 -81.7225 209° Southwest 175 201 3,000 -639 Descending Cleveland Center
Wed 05:37:18 PM 41.4681 -81.7664 228° Southwest 149 171 2,500 -492 Descending Cleveland Center

Login

Don't have an account? Register now (free) for customized features, flight alerts, and more!